Latest Weather Observations for Melville Water

IDW60801

Issued at 4:23 pm WST Wednesday 24 April 2019 (issued every 10 minutes, with the page automatically refreshed every 10 minutes)

About weather observations | Map of weather stations | Latest weather observations for WA | Other Formats
Station Details ID: 009091 Name: INNER DOLPHIN PYLON Lat: -31.99 Lon: 115.83 Height: 0.0 m
Data from the previous 72 hours. | See also: Recent months at Melville Water
Date/Time
WST
Temp
°C
App
Temp
°C
Dew
Point
°C
Rel
Hum
%
Delta-T
°C
Wind Press
QNH
hPa
Press
MSL
hPa
Rain since
9am
mm
Dir  Spd
km/h
Gust
km/h
Spd
kts
Gust
kts
24/04:00pm - - - - - SE 20 26 11 14 - - -
24/03:30pm - - - - - ESE 15 20 8 11 - - -
24/03:00pm - - - - - ESE 19 26 10 14 - - -
24/02:30pm - - - - - E 15 22 8 12 - - -
24/02:00pm - - - - - ESE 15 24 8 13 - - -
24/01:30pm - - - - - E 13 22 7 12 - - -
24/01:00pm - - - - - ENE 11 24 6 13 - - -
24/12:30pm - - - - - E 17 22 9 12 - - -
24/12:00pm - - - - - NE 13 19 7 10 - - -
24/11:30am - - - - - NE 13 17 7 9 - - -
24/11:00am - - - - - NE 13 17 7 9 - - -
24/10:30am - - - - - NNE 6 9 3 5 - - -
24/10:00am - - - - - ENE 6 6 3 3 - - -
24/09:30am - - - - - NNE 4 6 2 3 - - -
24/09:00am - - - - - ESE 9 13 5 7 - - -
24/08:30am - - - - - ESE 15 19 8 10 - - -
24/08:00am - - - - - ESE 19 22 10 12 - - -
24/07:30am - - - - - ESE 20 26 11 14 - - -
24/07:00am - - - - - ESE 17 24 9 13 - - -
24/06:30am - - - - - ESE 20 24 11 13 - - -
24/06:00am - - - - - ESE 19 24 10 13 - - -
24/05:30am - - - - - SE 15 19 8 10 - - -
24/05:00am - - - - - ESE 15 19 8 10 - - -
24/04:30am - - - - - SE 15 19 8 10 - - -
24/04:00am - - - - - ESE 15 19 8 10 - - -
24/03:30am - - - - - ESE 11 15 6 8 - - -
24/03:00am - - - - - SE 13 15 7 8 - - -
24/02:30am - - - - - ESE 6 11 3 6 - - -
24/02:00am - - - - - SE 11 13 6 7 - - -
24/01:30am - - - - - SSW 7 11 4 6 - - -
24/01:00am - - - - - SSW 9 11 5 6 - - -
24/12:30am - - - - - S 7 11 4 6 - - -
24/12:00am - - - - - S 6 9 3 5 - - -
 
Date/Time
WST
Temp
°C
App
Temp
°C
Dew
Point
°C
Rel
Hum
%
Delta-T
°C
Wind Press
QNH
hPa
Press
MSL
hPa
Rain since
9am
mm
Dir  Spd
km/h
Gust
km/h
Spd
kts
Gust
kts
23/11:30pm - - - - - S 6 9 3 5 - - -
23/11:00pm - - - - - S 6 7 3 4 - - -
23/10:30pm - - - - - S 6 7 3 4 - - -
23/10:00pm - - - - - S 6 9 3 5 - - -
23/09:30pm - - - - - S 4 6 2 3 - - -
23/09:00pm - - - - - S 9 17 5 9 - - -
23/08:30pm - - - - - S 13 17 7 9 - - -
23/08:00pm - - - - - S 13 17 7 9 - - -
23/07:30pm - - - - - S 13 19 7 10 - - -
23/07:00pm - - - - - S 13 19 7 10 - - -
23/06:30pm - - - - - SSW 11 13 6 7 - - -
23/06:00pm - - - - - SSW 17 20 9 11 - - -
23/05:30pm - - - - - SSW 22 28 12 15 - - -
23/05:00pm - - - - - SSW 24 28 13 15 - - -
23/04:30pm - - - - - SW 20 22 11 12 - - -
23/04:00pm - - - - - SW 19 24 10 13 - - -
23/03:30pm - - - - - SW 20 24 11 13 - - -
23/03:00pm - - - - - SW 24 28 13 15 - - -
23/02:30pm - - - - - SW 20 22 11 12 - - -
23/02:00pm - - - - - WSW 15 17 8 9 - - -
23/01:30pm - - - - - SW 9 11 5 6 - - -
23/01:00pm - - - - - W 2 4 1 2 - - -
23/12:30pm - - - - - SSW 4 6 2 3 - - -
23/12:00pm - - - - - SW 2 4 1 2 - - -
23/11:30am - - - - - CALM 0 2 0 1 - - -
23/11:00am - - - - - NNW 4 6 2 3 - - -
23/10:30am - - - - - N 2 4 1 2 - - -
23/10:00am - - - - - NNW 4 4 2 2 - - -
23/09:30am - - - - - CALM 0 2 0 1 - - -
23/09:00am - - - - - E 4 6 2 3 - - -
23/08:30am - - - - - SE 2 6 1 3 - - -
23/08:00am - - - - - E 2 6 1 3 - - -
23/07:30am - - - - - E 6 6 3 3 - - -
23/07:00am - - - - - E 7 11 4 6 - - -
23/06:30am - - - - - ESE 9 11 5 6 - - -
23/06:00am - - - - - ESE 9 11 5 6 - - -
23/05:30am - - - - - ESE 6 7 3 4 - - -
23/05:00am - - - - - SE 7 9 4 5 - - -
23/04:30am - - - - - ESE 6 7 3 4 - - -
23/04:00am - - - - - SE 9 13 5 7 - - -
23/03:30am - - - - - SSE 7 13 4 7 - - -
23/03:00am - - - - - SSE 6 11 3 6 - - -
23/02:30am - - - - - S 11 15 6 8 - - -
23/02:00am - - - - - ESE 4 6 2 3 - - -
23/01:30am - - - - - S 7 11 4 6 - - -
23/01:00am - - - - - S 6 9 3 5 - - -
23/12:30am - - - - - S 11 13 6 7 - - -
23/12:00am - - - - - S 9 11 5 6 - - -
 
Date/Time
WST
Temp
°C
App
Temp
°C
Dew
Point
°C
Rel
Hum
%
Delta-T
°C
Wind Press
QNH
hPa
Press
MSL
hPa
Rain since
9am
mm
Dir  Spd
km/h
Gust
km/h
Spd
kts
Gust
kts
22/11:30pm - - - - - SSW 6 7 3 4 - - -
22/11:00pm - - - - - S 7 11 4 6 - - -
22/10:30pm - - - - - SSE 6 9 3 5 - - -
22/10:00pm - - - - - S 11 13 6 7 - - -
22/09:30pm - - - - - S 11 19 6 10 - - -
22/09:00pm - - - - - S 9 13 5 7 - - -
22/08:30pm - - - - - S 11 15 6 8 - - -
22/08:00pm - - - - - S 9 11 5 6 - - -
22/07:30pm - - - - - SSW 9 11 5 6 - - -
22/07:00pm - - - - - SSW 11 15 6 8 - - -
22/06:30pm - - - - - SSW 11 13 6 7 - - -
22/06:00pm - - - - - SSW 17 22 9 12 - - -
22/05:30pm - - - - - SSW 17 22 9 12 - - -
22/05:00pm - - - - - SSW 19 24 10 13 - - -
22/04:30pm - - - - - SW 19 20 10 11 - - -
22/04:00pm - - - - - SW 15 20 8 11 - - -
22/03:30pm - - - - - SW 22 30 12 16 - - -
22/03:00pm - - - - - WSW 20 22 11 12 - - -
22/02:30pm - - - - - SW 17 19 9 10 - - -
22/02:00pm - - - - - SW 13 15 7 8 - - -
22/01:30pm - - - - - SW 11 11 6 6 - - -
22/01:00pm - - - - - S 6 7 3 4 - - -
22/12:30pm - - - - - S 7 9 4 5 - - -
22/12:00pm - - - - - SSE 4 7 2 4 - - -
22/11:30am - - - - - ESE 6 9 3 5 - - -
22/11:00am - - - - - E 4 7 2 4 - - -
22/10:30am - - - - - NE 9 11 5 6 - - -
22/10:00am - - - - - NE 9 13 5 7 - - -
22/09:30am - - - - - NE 13 17 7 9 - - -
22/09:00am - - - - - NE 15 19 8 10 - - -
22/08:30am - - - - - ENE 13 17 7 9 - - -
22/08:00am - - - - - ENE 13 15 7 8 - - -
22/07:30am - - - - - ENE 11 13 6 7 - - -
22/07:00am - - - - - ENE 9 13 5 7 - - -
22/06:30am - - - - - ENE 11 15 6 8 - - -
22/06:00am - - - - - ENE 15 17 8 9 - - -
22/05:30am - - - - - ENE 15 19 8 10 - - -
22/05:00am - - - - - NE 17 19 9 10 - - -
22/04:30am - - - - - NE 19 20 10 11 - - -
22/04:00am - - - - - E 11 13 6 7 - - -
22/03:30am - - - - - E 9 11 5 6 - - -
22/03:00am - - - - - E 7 7 4 4 - - -
22/02:30am - - - - - ESE 6 7 3 4 - - -
22/02:00am - - - - - ESE 6 7 3 4 - - -
22/01:30am - - - - - E 7 9 4 5 - - -
22/01:00am - - - - - SE 7 9 4 5 - - -
22/12:30am - - - - - SE 6 7 3 4 - - -
22/12:00am - - - - - ESE 6 7 3 4 - - -
 
Date/Time
WST
Temp
°C
App
Temp
°C
Dew
Point
°C
Rel
Hum
%
Delta-T
°C
Wind Press
QNH
hPa
Press
MSL
hPa
Rain since
9am
mm
Dir  Spd
km/h
Gust
km/h
Spd
kts
Gust
kts
21/11:30pm - - - - - SE 4 6 2 3 - - -
21/11:00pm - - - - - S 7 9 4 5 - - -
21/10:30pm - - - - - SSE 6 9 3 5 - - -
21/10:00pm - - - - - SE 7 11 4 6 - - -
21/09:30pm - - - - - S 7 9 4 5 - - -
21/09:00pm - - - - - S 7 11 4 6 - - -
21/08:30pm - - - - - S 7 11 4 6 - - -
21/08:00pm - - - - - SSE 7 11 4 6 - - -
21/07:30pm - - - - - S 9 13 5 7 - - -
21/07:00pm - - - - - S 13 17 7 9 - - -
21/06:30pm - - - - - S 11 15 6 8 - - -
21/06:00pm - - - - - S 13 19 7 10 - - -
21/05:30pm - - - - - SSW 19 22 10 12 - - -
21/05:00pm - - - - - SSW 20 24 11 13 - - -
21/04:30pm - - - - - SSW 19 22 10 12 - - -

Other formats

Comma delimited format used in spreadsheet applications
http://www.bom.gov.au/fwo/IDW60801/IDW60801.95620.axf

JavaScript Object Notation format (JSON) in row-major order
http://www.bom.gov.au/fwo/IDW60801/IDW60801.95620.json

Data quality

Most of these data are generated automatically and are frequently updated. Quality checks on data are not normally performed. It is possible for incorrect values to appear. Refer to information at About Latest Weather Observations and please check the disclaimer before using these data.